sensor_id;sensor_type;location;lat;lon;timestamp;P1;durP1;ratioP1;P2;durP2;ratioP2
7941;SDS011;4016;50.758;7.150;2022-12-29T00:00:40;0.67;;;0.67;;
7941;SDS011;4016;50.758;7.150;2022-12-29T00:05:41;0.77;;;0.77;;
7941;SDS011;4016;50.758;7.150;2022-12-29T00:10:41;0.70;;;0.70;;
7941;SDS011;4016;50.758;7.150;2022-12-29T00:15:42;0.67;;;0.67;;
7941;SDS011;4016;50.758;7.150;2022-12-29T00:20:42;0.60;;;0.60;;
7941;SDS011;4016;50.758;7.150;2022-12-29T00:26:02;0.40;;;0.40;;
7941;SDS011;4016;50.758;7.150;2022-12-29T00:31:22;0.50;;;0.50;;
7941;SDS011;4016;50.758;7.150;2022-12-29T00:36:41;1.50;;;1.40;;
7941;SDS011;4016;50.758;7.150;2022-12-29T00:41:43;0.90;;;0.90;;
7941;SDS011;4016;50.758;7.150;2022-12-29T00:47:02;1.13;;;1.03;;
7941;SDS011;4016;50.758;7.150;2022-12-29T00:57:06;0.60;;;0.60;;
7941;SDS011;4016;50.758;7.150;2022-12-29T01:02:09;0.50;;;0.50;;
7941;SDS011;4016;50.758;7.150;2022-12-29T01:07:10;0.40;;;0.40;;
7941;SDS011;4016;50.758;7.150;2022-12-29T01:12:11;0.67;;;0.67;;
7941;SDS011;4016;50.758;7.150;2022-12-29T01:17:12;0.60;;;0.60;;
7941;SDS011;4016;50.758;7.150;2022-12-29T01:22:12;0.40;;;0.40;;
7941;SDS011;4016;50.758;7.150;2022-12-29T01:27:12;0.63;;;0.63;;
7941;SDS011;4016;50.758;7.150;2022-12-29T01:32:13;0.80;;;0.80;;
7941;SDS011;4016;50.758;7.150;2022-12-29T01:37:13;0.40;;;0.40;;
7941;SDS011;4016;50.758;7.150;2022-12-29T01:42:17;0.87;;;0.87;;
7941;SDS011;4016;50.758;7.150;2022-12-29T01:47:34;0.57;;;0.57;;
7941;SDS011;4016;50.758;7.150;2022-12-29T01:52:41;0.73;;;0.73;;
7941;SDS011;4016;50.758;7.150;2022-12-29T01:57:46;0.73;;;0.73;;
7941;SDS011;4016;50.758;7.150;2022-12-29T02:02:51;0.43;;;0.43;;
7941;SDS011;4016;50.758;7.150;2022-12-29T02:07:52;1.00;;;0.70;;
7941;SDS011;4016;50.758;7.150;2022-12-29T02:12:53;0.40;;;0.40;;
7941;SDS011;4016;50.758;7.150;2022-12-29T02:23:41;1.90;;;0.70;;
7941;SDS011;4016;50.758;7.150;2022-12-29T02:28:32;0.97;;;0.70;;
7941;SDS011;4016;50.758;7.150;2022-12-29T02:44:21;0.90;;;0.90;;
7941;SDS011;4016;50.758;7.150;2022-12-29T02:49:53;0.97;;;0.97;;
7941;SDS011;4016;50.758;7.150;2022-12-29T02:55:00;0.67;;;0.67;;
7941;SDS011;4016;50.758;7.150;2022-12-29T03:10:25;0.70;;;0.70;;
7941;SDS011;4016;50.758;7.150;2022-12-29T03:15:34;1.10;;;1.10;;
7941;SDS011;4016;50.758;7.150;2022-12-29T03:21:02;0.93;;;0.93;;
7941;SDS011;4016;50.758;7.150;2022-12-29T03:26:10;1.00;;;1.00;;
7941;SDS011;4016;50.758;7.150;2022-12-29T03:31:13;0.80;;;0.80;;
7941;SDS011;4016;50.758;7.150;2022-12-29T03:36:17;1.07;;;1.07;;
7941;SDS011;4016;50.758;7.150;2022-12-29T03:41:27;1.70;;;1.60;;
7941;SDS011;4016;50.758;7.150;2022-12-29T03:46:30;0.80;;;0.80;;
7941;SDS011;4016;50.758;7.150;2022-12-29T03:51:30;1.13;;;1.13;;
7941;SDS011;4016;50.758;7.150;2022-12-29T03:56:31;0.83;;;0.83;;
7941;SDS011;4016;50.758;7.150;2022-12-29T04:01:31;0.83;;;0.83;;
7941;SDS011;4016;50.758;7.150;2022-12-29T04:06:32;0.80;;;0.80;;
7941;SDS011;4016;50.758;7.150;2022-12-29T04:11:32;1.33;;;0.63;;
7941;SDS011;4016;50.758;7.150;2022-12-29T04:16:33;0.90;;;0.90;;
7941;SDS011;4016;50.758;7.150;2022-12-29T04:21:35;1.40;;;1.23;;
7941;SDS011;4016;50.758;7.150;2022-12-29T04:26:35;0.60;;;0.60;;
7941;SDS011;4016;50.758;7.150;2022-12-29T04:31:36;0.70;;;0.70;;
7941;SDS011;4016;50.758;7.150;2022-12-29T04:36:36;0.40;;;0.40;;
7941;SDS011;4016;50.758;7.150;2022-12-29T04:41:37;1.73;;;1.03;;
7941;SDS011;4016;50.758;7.150;2022-12-29T04:46:37;0.70;;;0.67;;
7941;SDS011;4016;50.758;7.150;2022-12-29T04:51:37;0.47;;;0.47;;
7941;SDS011;4016;50.758;7.150;2022-12-29T04:56:38;2.67;;;1.17;;
7941;SDS011;4016;50.758;7.150;2022-12-29T05:01:38;0.87;;;0.87;;
7941;SDS011;4016;50.758;7.150;2022-12-29T05:06:38;2.73;;;1.03;;
7941;SDS011;4016;50.758;7.150;2022-12-29T05:11:39;0.90;;;0.77;;
7941;SDS011;4016;50.758;7.150;2022-12-29T05:16:39;1.13;;;0.83;;
7941;SDS011;4016;50.758;7.150;2022-12-29T05:21:39;0.90;;;0.90;;
7941;SDS011;4016;50.758;7.150;2022-12-29T05:26:40;1.50;;;0.90;;
7941;SDS011;4016;50.758;7.150;2022-12-29T05:31:40;0.57;;;0.57;;
7941;SDS011;4016;50.758;7.150;2022-12-29T05:36:41;0.90;;;0.90;;
7941;SDS011;4016;50.758;7.150;2022-12-29T05:41:41;0.93;;;0.93;;
7941;SDS011;4016;50.758;7.150;2022-12-29T05:46:41;0.70;;;0.70;;
7941;SDS011;4016;50.758;7.150;2022-12-29T05:51:42;0.60;;;0.60;;
7941;SDS011;4016;50.758;7.150;2022-12-29T05:56:42;0.60;;;0.60;;
7941;SDS011;4016;50.758;7.150;2022-12-29T06:01:42;0.97;;;0.97;;
7941;SDS011;4016;50.758;7.150;2022-12-29T06:06:43;1.47;;;1.37;;
7941;SDS011;4016;50.758;7.150;2022-12-29T06:11:43;0.63;;;0.63;;
7941;SDS011;4016;50.758;7.150;2022-12-29T06:16:44;1.07;;;0.97;;
7941;SDS011;4016;50.758;7.150;2022-12-29T06:21:44;1.37;;;1.27;;
7941;SDS011;4016;50.758;7.150;2022-12-29T06:26:44;1.83;;;1.60;;
7941;SDS011;4016;50.758;7.150;2022-12-29T06:31:45;1.00;;;1.00;;
7941;SDS011;4016;50.758;7.150;2022-12-29T06:36:45;1.00;;;1.00;;
7941;SDS011;4016;50.758;7.150;2022-12-29T06:41:45;1.57;;;1.47;;
7941;SDS011;4016;50.758;7.150;2022-12-29T06:46:46;1.33;;;1.23;;
7941;SDS011;4016;50.758;7.150;2022-12-29T06:51:46;1.00;;;0.93;;
7941;SDS011;4016;50.758;7.150;2022-12-29T06:56:47;1.43;;;1.33;;
7941;SDS011;4016;50.758;7.150;2022-12-29T07:01:47;1.53;;;1.07;;
7941;SDS011;4016;50.758;7.150;2022-12-29T07:06:48;0.70;;;0.70;;
7941;SDS011;4016;50.758;7.150;2022-12-29T07:11:48;0.73;;;0.70;;
7941;SDS011;4016;50.758;7.150;2022-12-29T07:16:49;0.43;;;0.43;;
7941;SDS011;4016;50.758;7.150;2022-12-29T07:21:49;0.83;;;0.70;;
7941;SDS011;4016;50.758;7.150;2022-12-29T07:26:49;0.63;;;0.63;;
7941;SDS011;4016;50.758;7.150;2022-12-29T07:31:50;0.70;;;0.70;;
7941;SDS011;4016;50.758;7.150;2022-12-29T07:36:50;0.40;;;0.40;;
7941;SDS011;4016;50.758;7.150;2022-12-29T07:41:50;0.93;;;0.93;;
7941;SDS011;4016;50.758;7.150;2022-12-29T07:46:51;0.53;;;0.53;;
7941;SDS011;4016;50.758;7.150;2022-12-29T07:51:51;0.67;;;0.67;;
7941;SDS011;4016;50.758;7.150;2022-12-29T07:56:52;0.90;;;0.90;;
7941;SDS011;4016;50.758;7.150;2022-12-29T08:01:52;0.80;;;0.80;;
7941;SDS011;4016;50.758;7.150;2022-12-29T08:06:52;0.60;;;0.60;;
7941;SDS011;4016;50.758;7.150;2022-12-29T08:11:53;0.80;;;0.80;;
7941;SDS011;4016;50.758;7.150;2022-12-29T08:16:54;1.43;;;1.17;;
7941;SDS011;4016;50.758;7.150;2022-12-29T08:21:54;0.50;;;0.50;;
7941;SDS011;4016;50.758;7.150;2022-12-29T08:26:55;3.13;;;1.07;;
7941;SDS011;4016;50.758;7.150;2022-12-29T08:31:55;0.73;;;0.67;;
7941;SDS011;4016;50.758;7.150;2022-12-29T08:36:55;1.23;;;1.00;;
7941;SDS011;4016;50.758;7.150;2022-12-29T08:41:56;0.77;;;0.77;;
7941;SDS011;4016;50.758;7.150;2022-12-29T08:46:56;1.13;;;1.07;;
7941;SDS011;4016;50.758;7.150;2022-12-29T08:51:56;2.00;;;1.10;;
7941;SDS011;4016;50.758;7.150;2022-12-29T08:56:57;2.17;;;0.77;;
7941;SDS011;4016;50.758;7.150;2022-12-29T09:01:57;3.00;;;1.63;;
7941;SDS011;4016;50.758;7.150;2022-12-29T09:06:57;1.87;;;1.20;;
7941;SDS011;4016;50.758;7.150;2022-12-29T09:11:58;1.93;;;0.83;;
7941;SDS011;4016;50.758;7.150;2022-12-29T09:16:58;4.93;;;2.23;;
7941;SDS011;4016;50.758;7.150;2022-12-29T09:22:17;1.70;;;1.60;;
7941;SDS011;4016;50.758;7.150;2022-12-29T09:27:17;2.57;;;1.47;;
7941;SDS011;4016;50.758;7.150;2022-12-29T09:32:18;2.43;;;1.10;;
7941;SDS011;4016;50.758;7.150;2022-12-29T09:37:18;1.90;;;1.17;;
7941;SDS011;4016;50.758;7.150;2022-12-29T09:47:58;1.40;;;1.30;;
7941;SDS011;4016;50.758;7.150;2022-12-29T09:58:03;1.07;;;1.00;;
7941;SDS011;4016;50.758;7.150;2022-12-29T10:03:15;1.67;;;1.57;;
7941;SDS011;4016;50.758;7.150;2022-12-29T10:08:37;2.97;;;1.00;;
7941;SDS011;4016;50.758;7.150;2022-12-29T10:24:07;1.07;;;0.97;;
7941;SDS011;4016;50.758;7.150;2022-12-29T10:29:16;7.23;;;1.70;;
7941;SDS011;4016;50.758;7.150;2022-12-29T10:39:39;2.07;;;1.77;;
7941;SDS011;4016;50.758;7.150;2022-12-29T10:44:45;1.43;;;1.33;;
7941;SDS011;4016;50.758;7.150;2022-12-29T10:49:45;1.83;;;1.47;;
7941;SDS011;4016;50.758;7.150;2022-12-29T10:54:54;1.33;;;1.23;;
7941;SDS011;4016;50.758;7.150;2022-12-29T11:00:00;1.00;;;0.90;;
7941;SDS011;4016;50.758;7.150;2022-12-29T11:15:43;2.93;;;1.40;;
7941;SDS011;4016;50.758;7.150;2022-12-29T11:20:45;4.33;;;1.70;;
7941;SDS011;4016;50.758;7.150;2022-12-29T11:25:45;1.80;;;1.03;;
7941;SDS011;4016;50.758;7.150;2022-12-29T11:30:49;1.83;;;1.40;;
7941;SDS011;4016;50.758;7.150;2022-12-29T11:41:28;2.07;;;1.13;;
7941;SDS011;4016;50.758;7.150;2022-12-29T11:46:32;2.47;;;1.07;;
7941;SDS011;4016;50.758;7.150;2022-12-29T11:51:41;3.33;;;1.47;;
7941;SDS011;4016;50.758;7.150;2022-12-29T11:56:45;3.20;;;1.33;;
7941;SDS011;4016;50.758;7.150;2022-12-29T12:01:46;5.30;;;1.87;;
7941;SDS011;4016;50.758;7.150;2022-12-29T12:06:49;3.07;;;1.47;;
7941;SDS011;4016;50.758;7.150;2022-12-29T12:12:01;4.10;;;1.90;;
7941;SDS011;4016;50.758;7.150;2022-12-29T12:17:09;2.20;;;1.60;;
7941;SDS011;4016;50.758;7.150;2022-12-29T12:22:31;2.13;;;1.60;;
7941;SDS011;4016;50.758;7.150;2022-12-29T12:32:58;2.97;;;1.67;;
7941;SDS011;4016;50.758;7.150;2022-12-29T12:43:35;3.40;;;2.10;;
7941;SDS011;4016;50.758;7.150;2022-12-29T12:48:55;3.83;;;1.50;;
7941;SDS011;4016;50.758;7.150;2022-12-29T12:54:05;3.37;;;1.50;;
7941;SDS011;4016;50.758;7.150;2022-12-29T13:36:58;2.43;;;1.70;;
7941;SDS011;4016;50.758;7.150;2022-12-29T13:42:02;3.90;;;1.67;;
7941;SDS011;4016;50.758;7.150;2022-12-29T13:52:32;3.33;;;1.93;;
7941;SDS011;4016;50.758;7.150;2022-12-29T14:03:39;3.80;;;2.27;;
7941;SDS011;4016;50.758;7.150;2022-12-29T14:08:44;3.00;;;1.93;;
7941;SDS011;4016;50.758;7.150;2022-12-29T14:13:45;5.17;;;1.73;;
7941;SDS011;4016;50.758;7.150;2022-12-29T14:18:47;3.27;;;1.47;;
7941;SDS011;4016;50.758;7.150;2022-12-29T14:23:48;6.23;;;2.03;;
7941;SDS011;4016;50.758;7.150;2022-12-29T14:28:50;2.93;;;1.80;;
7941;SDS011;4016;50.758;7.150;2022-12-29T14:44:28;3.30;;;1.30;;
7941;SDS011;4016;50.758;7.150;2022-12-29T14:49:30;3.80;;;1.77;;
7941;SDS011;4016;50.758;7.150;2022-12-29T14:59:33;2.43;;;1.60;;
7941;SDS011;4016;50.758;7.150;2022-12-29T15:04:35;4.43;;;2.07;;
7941;SDS011;4016;50.758;7.150;2022-12-29T15:09:37;5.40;;;2.13;;
7941;SDS011;4016;50.758;7.150;2022-12-29T15:14:52;2.33;;;2.10;;
7941;SDS011;4016;50.758;7.150;2022-12-29T15:19:58;4.97;;;3.00;;
7941;SDS011;4016;50.758;7.150;2022-12-29T15:24:59;2.53;;;2.00;;
7941;SDS011;4016;50.758;7.150;2022-12-29T15:30:01;6.63;;;2.13;;
7941;SDS011;4016;50.758;7.150;2022-12-29T15:35:09;5.20;;;2.67;;
7941;SDS011;4016;50.758;7.150;2022-12-29T15:40:30;3.73;;;2.37;;
7941;SDS011;4016;50.758;7.150;2022-12-29T15:45:33;1.47;;;1.37;;
7941;SDS011;4016;50.758;7.150;2022-12-29T15:50:35;2.10;;;1.90;;
7941;SDS011;4016;50.758;7.150;2022-12-29T15:55:38;2.23;;;1.93;;
7941;SDS011;4016;50.758;7.150;2022-12-29T16:00:41;2.73;;;1.40;;
7941;SDS011;4016;50.758;7.150;2022-12-29T16:05:54;1.77;;;1.63;;
7941;SDS011;4016;50.758;7.150;2022-12-29T16:10:57;3.20;;;2.27;;
7941;SDS011;4016;50.758;7.150;2022-12-29T16:16:09;4.13;;;1.30;;
7941;SDS011;4016;50.758;7.150;2022-12-29T16:21:22;4.60;;;1.70;;
7941;SDS011;4016;50.758;7.150;2022-12-29T16:26:25;2.77;;;2.10;;
7941;SDS011;4016;50.758;7.150;2022-12-29T16:31:33;4.00;;;1.67;;
7941;SDS011;4016;50.758;7.150;2022-12-29T16:36:34;3.83;;;2.53;;
7941;SDS011;4016;50.758;7.150;2022-12-29T16:41:40;2.83;;;2.37;;
7941;SDS011;4016;50.758;7.150;2022-12-29T16:46:45;5.67;;;2.63;;
7941;SDS011;4016;50.758;7.150;2022-12-29T16:51:57;2.67;;;2.17;;
7941;SDS011;4016;50.758;7.150;2022-12-29T16:56:58;3.27;;;2.00;;
7941;SDS011;4016;50.758;7.150;2022-12-29T17:01:59;3.70;;;2.10;;
7941;SDS011;4016;50.758;7.150;2022-12-29T17:07:11;5.93;;;2.50;;
7941;SDS011;4016;50.758;7.150;2022-12-29T17:12:17;3.17;;;2.13;;
7941;SDS011;4016;50.758;7.150;2022-12-29T17:22:41;3.57;;;2.23;;
7941;SDS011;4016;50.758;7.150;2022-12-29T17:32:46;4.43;;;1.90;;
7941;SDS011;4016;50.758;7.150;2022-12-29T17:37:50;5.50;;;1.87;;
7941;SDS011;4016;50.758;7.150;2022-12-29T17:42:52;3.53;;;1.97;;
7941;SDS011;4016;50.758;7.150;2022-12-29T17:47:55;3.80;;;2.07;;
7941;SDS011;4016;50.758;7.150;2022-12-29T17:53:00;6.20;;;2.43;;
7941;SDS011;4016;50.758;7.150;2022-12-29T17:58:19;6.07;;;2.20;;
7941;SDS011;4016;50.758;7.150;2022-12-29T18:03:25;4.20;;;2.10;;
7941;SDS011;4016;50.758;7.150;2022-12-29T18:08:26;2.87;;;2.40;;
7941;SDS011;4016;50.758;7.150;2022-12-29T18:13:30;7.93;;;2.10;;
7941;SDS011;4016;50.758;7.150;2022-12-29T18:18:32;3.80;;;2.50;;
7941;SDS011;4016;50.758;7.150;2022-12-29T18:23:32;4.93;;;2.50;;
7941;SDS011;4016;50.758;7.150;2022-12-29T18:28:35;3.13;;;2.17;;
7941;SDS011;4016;50.758;7.150;2022-12-29T18:33:36;3.87;;;1.50;;
7941;SDS011;4016;50.758;7.150;2022-12-29T18:38:36;3.80;;;2.77;;
7941;SDS011;4016;50.758;7.150;2022-12-29T18:43:37;2.77;;;1.97;;
7941;SDS011;4016;50.758;7.150;2022-12-29T18:48:38;4.23;;;2.13;;
7941;SDS011;4016;50.758;7.150;2022-12-29T18:53:39;2.67;;;2.03;;
7941;SDS011;4016;50.758;7.150;2022-12-29T18:58:39;5.43;;;2.33;;
7941;SDS011;4016;50.758;7.150;2022-12-29T19:03:40;2.73;;;2.23;;
7941;SDS011;4016;50.758;7.150;2022-12-29T19:08:41;5.53;;;2.23;;
7941;SDS011;4016;50.758;7.150;2022-12-29T19:13:42;5.50;;;2.27;;
7941;SDS011;4016;50.758;7.150;2022-12-29T19:18:42;7.60;;;3.30;;
7941;SDS011;4016;50.758;7.150;2022-12-29T19:23:43;5.63;;;3.27;;
7941;SDS011;4016;50.758;7.150;2022-12-29T19:28:46;6.87;;;2.60;;
7941;SDS011;4016;50.758;7.150;2022-12-29T19:33:46;4.07;;;2.13;;
7941;SDS011;4016;50.758;7.150;2022-12-29T19:38:47;3.43;;;2.47;;
7941;SDS011;4016;50.758;7.150;2022-12-29T19:43:47;5.13;;;2.67;;
7941;SDS011;4016;50.758;7.150;2022-12-29T19:48:49;5.40;;;3.10;;
7941;SDS011;4016;50.758;7.150;2022-12-29T19:53:50;6.90;;;3.83;;
7941;SDS011;4016;50.758;7.150;2022-12-29T19:58:52;5.07;;;3.43;;
7941;SDS011;4016;50.758;7.150;2022-12-29T20:03:53;6.47;;;3.77;;
7941;SDS011;4016;50.758;7.150;2022-12-29T20:08:53;3.07;;;2.37;;
7941;SDS011;4016;50.758;7.150;2022-12-29T20:13:54;10.03;;;3.20;;
7941;SDS011;4016;50.758;7.150;2022-12-29T20:18:55;4.87;;;3.03;;
7941;SDS011;4016;50.758;7.150;2022-12-29T20:23:55;7.03;;;2.90;;
7941;SDS011;4016;50.758;7.150;2022-12-29T20:28:55;8.97;;;2.10;;
7941;SDS011;4016;50.758;7.150;2022-12-29T20:33:57;4.43;;;2.53;;
7941;SDS011;4016;50.758;7.150;2022-12-29T20:38:58;3.90;;;2.07;;
7941;SDS011;4016;50.758;7.150;2022-12-29T20:44:00;5.50;;;2.10;;
7941;SDS011;4016;50.758;7.150;2022-12-29T20:49:01;4.17;;;2.23;;
7941;SDS011;4016;50.758;7.150;2022-12-29T20:54:02;4.43;;;2.00;;
7941;SDS011;4016;50.758;7.150;2022-12-29T20:59:03;3.13;;;1.80;;
7941;SDS011;4016;50.758;7.150;2022-12-29T21:04:04;3.30;;;1.67;;
7941;SDS011;4016;50.758;7.150;2022-12-29T21:09:05;1.80;;;1.63;;
7941;SDS011;4016;50.758;7.150;2022-12-29T21:14:05;2.83;;;1.47;;
7941;SDS011;4016;50.758;7.150;2022-12-29T21:19:06;2.03;;;1.47;;
7941;SDS011;4016;50.758;7.150;2022-12-29T21:24:06;2.43;;;1.77;;
7941;SDS011;4016;50.758;7.150;2022-12-29T21:29:07;5.27;;;2.73;;
7941;SDS011;4016;50.758;7.150;2022-12-29T21:34:07;4.47;;;3.37;;
7941;SDS011;4016;50.758;7.150;2022-12-29T21:39:08;5.03;;;2.63;;
7941;SDS011;4016;50.758;7.150;2022-12-29T21:44:09;4.00;;;2.33;;
7941;SDS011;4016;50.758;7.150;2022-12-29T21:49:28;4.50;;;2.90;;
7941;SDS011;4016;50.758;7.150;2022-12-29T21:54:29;4.60;;;2.53;;
7941;SDS011;4016;50.758;7.150;2022-12-29T21:59:48;6.23;;;3.00;;
7941;SDS011;4016;50.758;7.150;2022-12-29T22:05:08;3.10;;;1.97;;
7941;SDS011;4016;50.758;7.150;2022-12-29T22:10:29;6.00;;;2.20;;
7941;SDS011;4016;50.758;7.150;2022-12-29T22:15:48;4.70;;;2.20;;
7941;SDS011;4016;50.758;7.150;2022-12-29T22:20:49;5.20;;;2.47;;
7941;SDS011;4016;50.758;7.150;2022-12-29T22:25:50;4.17;;;2.40;;
7941;SDS011;4016;50.758;7.150;2022-12-29T22:30:50;5.43;;;2.83;;
7941;SDS011;4016;50.758;7.150;2022-12-29T22:35:51;6.47;;;2.73;;
7941;SDS011;4016;50.758;7.150;2022-12-29T22:40:56;2.83;;;1.77;;
7941;SDS011;4016;50.758;7.150;2022-12-29T22:46:04;4.83;;;1.93;;
7941;SDS011;4016;50.758;7.150;2022-12-29T22:51:08;2.53;;;2.27;;
7941;SDS011;4016;50.758;7.150;2022-12-29T22:56:09;4.83;;;2.33;;
7941;SDS011;4016;50.758;7.150;2022-12-29T23:01:12;4.80;;;2.43;;
7941;SDS011;4016;50.758;7.150;2022-12-29T23:06:15;5.23;;;2.23;;
7941;SDS011;4016;50.758;7.150;2022-12-29T23:11:16;4.17;;;2.17;;
7941;SDS011;4016;50.758;7.150;2022-12-29T23:16:16;5.23;;;2.10;;
7941;SDS011;4016;50.758;7.150;2022-12-29T23:21:17;6.93;;;2.80;;
7941;SDS011;4016;50.758;7.150;2022-12-29T23:26:22;3.87;;;2.10;;
7941;SDS011;4016;50.758;7.150;2022-12-29T23:31:27;5.60;;;2.20;;
7941;SDS011;4016;50.758;7.150;2022-12-29T23:36:29;8.50;;;2.67;;
7941;SDS011;4016;50.758;7.150;2022-12-29T23:41:29;5.10;;;2.33;;
7941;SDS011;4016;50.758;7.150;2022-12-29T23:46:33;3.67;;;1.93;;
7941;SDS011;4016;50.758;7.150;2022-12-29T23:51:34;9.33;;;2.10;;
7941;SDS011;4016;50.758;7.150;2022-12-29T23:56:35;4.60;;;2.43;;
